Time;durP1;ratioP1;P1;durP2;ratioP2;P2;SDS_P1;SDS_P2;PMS_P1;PMS_P2;Temp;Humidity;BMP_temperature;BMP_pressure;BME280_temperature;BME280_humidity;BME280_pressure;Samples;Min_cycle;Max_cycle;Signal;HPM_P1;HPM_P2
2022/12/30 03:47:01;;;;;;;0.25;0.00;;;8.00;96.60;;;;;;5531048;23;89757;-72
2022/12/30 03:49:27;;;;;;;0.68;0.00;;;7.90;96.90;;;;;;4876899;28;87982;-72
2022/12/30 03:51:52;;;;;;;0.30;0.00;;;7.90;97.10;;;;;;4876883;28;87575;-72
2022/12/30 03:54:18;;;;;;;0.45;0.00;;;7.90;97.50;;;;;;4880425;28;88335;-72
2022/12/30 03:56:44;;;;;;;0.00;0.00;;;7.90;97.30;;;;;;4882920;28;87959;-72
2022/12/30 03:59:09;;;;;;;0.30;0.00;;;7.90;97.50;;;;;;4883083;28;87177;-71
2022/12/30 04:01:35;;;;;;;1.70;0.00;;;7.90;97.70;;;;;;4884210;28;86964;-72
2022/12/30 04:04:01;;;;;;;0.75;0.00;;;7.90;97.80;;;;;;4882384;28;86489;-72
2022/12/30 04:06:27;;;;;;;0.40;0.00;;;8.00;97.80;;;;;;4879501;28;87217;-72
2022/12/30 04:08:52;;;;;;;0.40;0.10;;;8.10;97.60;;;;;;4879316;28;89686;-72
2022/12/30 04:11:18;;;;;;;5.40;0.10;;;8.10;97.30;;;;;;4884279;28;88286;-72
2022/12/30 04:13:44;;;;;;;0.73;0.08;;;8.10;97.20;;;;;;4878156;28;87670;-72
2022/12/30 04:16:09;;;;;;;0.55;0.10;;;8.10;97.30;;;;;;4874823;28;86865;-72
2022/12/30 04:18:35;;;;;;;0.93;0.10;;;8.00;97.80;;;;;;4883282;28;87054;-72
2022/12/30 04:21:01;;;;;;;0.57;0.10;;;8.00;98.00;;;;;;4887786;28;87033;-72
2022/12/30 04:23:26;;;;;;;4.88;0.20;;;7.90;98.40;;;;;;4877918;28;87558;-72
2022/12/30 04:25:52;;;;;;;1.80;0.10;;;7.90;98.50;;;;;;4879050;28;87651;-72
2022/12/30 04:28:18;;;;;;;0.30;0.00;;;8.00;98.50;;;;;;4880338;28;87894;-72
2022/12/30 04:30:43;;;;;;;1.35;0.00;;;8.00;98.20;;;;;;4885223;28;86977;-72
2022/12/30 04:33:09;;;;;;;1.15;0.10;;;8.10;98.00;;;;;;4885271;28;86969;-72
2022/12/30 04:35:35;;;;;;;1.48;0.00;;;8.10;97.80;;;;;;4881127;28;89779;-72
2022/12/30 04:38:00;;;;;;;0.57;0.00;;;8.20;97.30;;;;;;4884744;28;87139;-71
2022/12/30 04:40:26;;;;;;;0.93;0.03;;;8.20;96.90;;;;;;4882328;28;88305;-72
2022/12/30 04:42:51;;;;;;;0.30;0.00;;;8.10;97.30;;;;;;4883654;28;87723;-71
2022/12/30 04:45:17;;;;;;;0.88;0.10;;;8.10;97.20;;;;;;4878778;28;87294;-70
2022/12/30 04:47:43;;;;;;;1.58;0.30;;;8.10;97.20;;;;;;4869232;28;87220;-70
2022/12/30 04:50:10;;;;;;;0.40;0.10;;;8.20;97.00;;;;;;4860827;28;86802;-70
2022/12/30 04:52:36;;;;;;;3.08;0.10;;;8.10;96.80;;;;;;4862193;28;86989;-70
2022/12/30 04:55:01;;;;;;;0.77;0.03;;;8.00;96.80;;;;;;4861653;28;87308;-70
2022/12/30 04:57:27;;;;;;;0.77;0.00;;;7.90;96.90;;;;;;4864007;28;87842;-71
2022/12/30 04:59:53;;;;;;;0.57;0.08;;;7.90;97.00;;;;;;4862994;28;88017;-70
2022/12/30 05:02:18;;;;;;;1.30;0.10;;;7.80;97.30;;;;;;4860412;28;86829;-71
2022/12/30 05:04:44;;;;;;;1.00;0.20;;;7.70;97.70;;;;;;4866122;28;87261;-70
2022/12/30 05:07:09;;;;;;;1.08;0.10;;;7.70;98.00;;;;;;4859510;28;87316;-72
2022/12/30 05:09:35;;;;;;;1.38;0.30;;;7.60;98.40;;;;;;4855458;28;87492;-71
2022/12/30 05:12:01;;;;;;;2.75;0.35;;;7.60;98.70;;;;;;4864862;28;86837;-71
2022/12/30 05:14:26;;;;;;;3.22;0.52;;;7.50;99.00;;;;;;4869028;28;87124;-72
2022/12/30 05:16:52;;;;;;;2.70;0.40;;;7.50;99.30;;;;;;4869444;28;86880;-71
2022/12/30 05:19:18;;;;;;;2.05;0.20;;;7.50;99.70;;;;;;4866824;28;87394;-71
2022/12/30 05:21:43;;;;;;;4.05;0.45;;;7.40;99.90;;;;;;4862644;28;86932;-71
2022/12/30 05:26:54;;;;;;;2.78;0.43;;;7.30;99.90;;;;;;4864809;28;86930;-71
2022/12/30 05:29:19;;;;;;;3.00;0.50;;;7.30;99.90;;;;;;4856225;28;87509;-71
2022/12/30 05:31:45;;;;;;;1.30;0.40;;;7.20;99.90;;;;;;4869201;28;86792;-71
2022/12/30 05:34:11;;;;;;;1.70;0.35;;;7.10;99.90;;;;;;4867243;28;87225;-71
2022/12/30 05:36:37;;;;;;;1.63;0.60;;;7.10;99.90;;;;;;4866614;28;87822;-71
2022/12/30 05:39:03;;;;;;;2.20;0.60;;;7.20;99.90;;;;;;4864666;28;87434;-71
2022/12/30 05:41:28;;;;;;;2.80;0.80;;;7.20;99.90;;;;;;4867118;28;86235;-71
2022/12/30 05:43:54;;;;;;;1.67;0.45;;;7.30;99.90;;;;;;4851259;28;87328;-72
2022/12/30 05:46:21;;;;;;;1.70;0.80;;;7.30;99.90;;;;;;4863181;28;86957;-72
2022/12/30 05:48:47;;;;;;;2.20;0.47;;;7.30;99.90;;;;;;4860513;28;87978;-72
2022/12/30 05:51:13;;;;;;;1.20;0.30;;;7.20;99.90;;;;;;4868082;28;86838;-72
2022/12/30 05:53:39;;;;;;;2.25;0.50;;;7.20;99.90;;;;;;4857673;28;87358;-72
2022/12/30 05:56:05;;;;;;;1.50;0.60;;;7.20;99.90;;;;;;4864268;28;87381;-72
2022/12/30 05:58:30;;;;;;;1.60;0.63;;;7.20;99.90;;;;;;4859951;28;87776;-72
2022/12/30 06:00:57;;;;;;;1.30;0.52;;;7.10;99.90;;;;;;4859039;28;87036;-71
2022/12/30 06:03:22;;;;;;;1.65;0.28;;;7.10;99.90;;;;;;4860337;28;92785;-72
2022/12/30 06:05:57;;;;;;;0.73;0.10;;;7.00;99.90;;;;;;4866055;28;92374;-72
2022/12/30 06:08:23;;;;;;;0.82;0.10;;;7.00;99.90;;;;;;4862682;28;92588;-70
2022/12/30 06:10:50;;;;;;;1.58;0.10;;;6.90;99.90;;;;;;4867357;28;92692;-70
2022/12/30 06:13:15;;;;;;;0.98;0.10;;;6.90;99.90;;;;;;4856495;28;93692;-70
2022/12/30 06:15:41;;;;;;;1.83;0.10;;;6.80;99.90;;;;;;4853455;28;92903;-71
2022/12/30 06:18:07;;;;;;;0.55;0.10;;;6.80;99.90;;;;;;4859527;28;92714;-70
2022/12/30 06:20:36;;;;;;;0.65;0.20;;;6.80;99.90;;;;;;4861934;28;92833;-70
2022/12/30 06:23:03;;;;;;;0.70;0.20;;;6.70;99.90;;;;;;4856961;28;92866;-70
2022/12/30 06:25:29;;;;;;;0.45;0.10;;;6.70;99.90;;;;;;4865013;28;92420;-70
2022/12/30 06:27:55;;;;;;;1.00;0.13;;;6.70;99.90;;;;;;4864960;28;93012;-70
2022/12/30 06:30:21;;;;;;;0.40;0.10;;;6.60;99.90;;;;;;4865974;28;91219;-71
2022/12/30 06:32:46;;;;;;;0.90;0.20;;;6.70;99.90;;;;;;4855918;28;92222;-71
2022/12/30 06:35:12;;;;;;;1.00;0.20;;;6.60;99.90;;;;;;4863981;28;91933;-70
2022/12/30 06:37:38;;;;;;;0.75;0.20;;;6.60;99.90;;;;;;4860060;28;92859;-71
2022/12/30 06:40:05;;;;;;;1.30;0.30;;;6.60;99.90;;;;;;4857758;28;92041;-71
2022/12/30 06:42:31;;;;;;;1.48;0.13;;;6.60;99.90;;;;;;4853332;28;92529;-71
2022/12/30 06:44:56;;;;;;;0.98;0.20;;;6.60;99.90;;;;;;4857524;28;92924;-71
2022/12/30 06:47:22;;;;;;;2.88;0.68;;;6.60;99.90;;;;;;4861893;28;92064;-71
2022/12/30 06:49:48;;;;;;;2.38;0.47;;;6.50;99.90;;;;;;4859090;28;92820;-71
2022/12/30 06:52:14;;;;;;;1.85;0.20;;;6.50;99.90;;;;;;4854494;28;92563;-71
2022/12/30 06:54:40;;;;;;;0.70;0.20;;;6.50;99.90;;;;;;4856373;28;92510;-71
2022/12/30 06:57:06;;;;;;;2.75;0.40;;;6.40;99.90;;;;;;4859268;28;91748;-70
2022/12/30 06:59:31;;;;;;;2.38;0.50;;;6.40;99.90;;;;;;4853419;28;92011;-72
2022/12/30 07:01:57;;;;;;;3.33;1.30;;;6.40;99.90;;;;;;4857397;28;93889;-71
2022/12/30 07:04:23;;;;;;;3.80;1.25;;;6.40;99.90;;;;;;4857828;28;92401;-71
2022/12/30 07:06:48;;;;;;;4.55;0.85;;;6.30;99.90;;;;;;4861278;28;92630;-70
2022/12/30 07:09:14;;;;;;;2.65;1.23;;;6.30;99.90;;;;;;4853630;28;93180;-70
2022/12/30 07:11:40;;;;;;;2.63;0.85;;;6.30;99.90;;;;;;4855216;28;91844;-70
2022/12/30 07:14:05;;;;;;;2.30;0.82;;;6.30;99.90;;;;;;4855476;28;92777;-70
2022/12/30 07:16:31;;;;;;;2.65;0.70;;;6.20;99.90;;;;;;4857414;28;92676;-70
2022/12/30 07:18:57;;;;;;;2.42;0.95;;;6.20;99.90;;;;;;4853322;28;91908;-70
2022/12/30 07:21:22;;;;;;;2.75;0.80;;;6.20;99.90;;;;;;4855365;28;93005;-70
2022/12/30 07:23:48;;;;;;;4.00;1.30;;;6.20;99.90;;;;;;4851617;28;92407;-70
2022/12/30 07:26:13;;;;;;;5.25;1.40;;;6.20;99.90;;;;;;4861394;28;94756;-70
2022/12/30 07:28:39;;;;;;;3.30;1.02;;;6.20;99.90;;;;;;4857701;28;92787;-70
2022/12/30 07:31:05;;;;;;;4.40;1.15;;;6.20;99.90;;;;;;4860713;28;92165;-70
2022/12/30 07:33:30;;;;;;;8.80;3.75;;;6.20;99.90;;;;;;4864492;28;92960;-70
2022/12/30 07:35:56;;;;;;;32.30;16.15;;;6.30;99.90;;;;;;4861908;28;92018;-70
2022/12/30 07:38:22;;;;;;;8.35;4.03;;;6.30;99.90;;;;;;4863807;28;92498;-70
2022/12/30 07:40:47;;;;;;;3.65;1.38;;;6.40;99.90;;;;;;4861249;28;92609;-70
2022/12/30 07:43:13;;;;;;;3.25;1.23;;;6.50;99.90;;;;;;4864388;28;91865;-70
2022/12/30 07:45:38;;;;;;;2.95;1.48;;;6.50;99.90;;;;;;4860410;28;93376;-70
2022/12/30 07:48:04;;;;;;;4.70;1.33;;;6.50;99.90;;;;;;4861407;28;93328;-70
2022/12/30 07:50:30;;;;;;;3.17;0.85;;;6.50;99.90;;;;;;4862893;28;93192;-70
2022/12/30 07:52:56;;;;;;;2.65;1.23;;;6.50;99.90;;;;;;4852991;28;92837;-70
2022/12/30 07:55:21;;;;;;;5.57;1.33;;;6.50;99.90;;;;;;4857594;28;91987;-71
2022/12/30 07:57:47;;;;;;;4.47;1.67;;;6.50;99.90;;;;;;4864899;28;92551;-70
2022/12/30 08:00:13;;;;;;;9.93;2.38;;;6.50;99.90;;;;;;4860667;28;92239;-70
2022/12/30 08:02:39;;;;;;;5.25;2.33;;;6.50;99.90;;;;;;4863352;28;92574;-70
2022/12/30 08:05:06;;;;;;;10.30;2.83;;;6.60;99.90;;;;;;4861324;28;92423;-70
2022/12/30 08:07:33;;;;;;;6.68;2.55;;;6.70;99.90;;;;;;4865085;28;92168;-70
2022/12/30 08:09:59;;;;;;;5.72;2.30;;;6.80;99.90;;;;;;4861765;28;91991;-70
2022/12/30 08:12:24;;;;;;;8.43;2.38;;;6.80;99.90;;;;;;4864218;28;92540;-70
2022/12/30 08:14:50;;;;;;;7.22;2.97;;;6.90;99.90;;;;;;4862327;28;93877;-70
2022/12/30 08:17:16;;;;;;;4.55;2.40;;;7.20;99.90;;;;;;4856732;28;91828;-70
2022/12/30 08:19:41;;;;;;;6.22;2.40;;;7.60;99.90;;;;;;4860591;28;93026;-70
2022/12/30 08:22:07;;;;;;;6.57;2.35;;;7.80;99.60;;;;;;4852478;28;92751;-70
2022/12/30 08:24:33;;;;;;;7.88;2.92;;;7.90;98.80;;;;;;4859306;28;91962;-70
2022/12/30 08:26:58;;;;;;;3.63;1.80;;;8.00;98.10;;;;;;4855543;28;92111;-71
2022/12/30 08:29:24;;;;;;;4.40;1.63;;;8.10;97.90;;;;;;4852912;28;92379;-70
2022/12/30 08:31:50;;;;;;;4.70;1.45;;;8.40;97.50;;;;;;4851118;28;92153;-70
2022/12/30 08:34:17;;;;;;;2.70;1.15;;;8.60;96.30;;;;;;4852262;28;91966;-70
2022/12/30 08:36:43;;;;;;;2.70;1.25;;;9.10;95.50;;;;;;4850469;28;92082;-71
2022/12/30 08:39:09;;;;;;;5.85;1.40;;;9.70;93.80;;;;;;4857243;28;93835;-71
2022/12/30 08:41:38;;;;;;;4.45;1.70;;;10.20;92.50;;;;;;4854491;28;92892;-71
2022/12/30 08:44:05;;;;;;;7.75;1.70;;;10.50;91.50;;;;;;4853044;28;91978;-71
2022/12/30 08:46:33;;;;;;;6.35;2.00;;;10.70;90.90;;;;;;4852583;28;92614;-71
2022/12/30 08:48:59;;;;;;;4.53;1.88;;;11.00;89.30;;;;;;4858898;28;92856;-71
2022/12/30 08:51:26;;;;;;;3.85;2.17;;;11.10;88.70;;;;;;4855012;28;92140;-71
2022/12/30 08:53:51;;;;;;;3.42;1.30;;;11.00;87.20;;;;;;4852075;28;91985;-71
2022/12/30 08:56:29;;;;;;;4.90;2.10;;;10.60;87.90;;;;;;4854309;28;91357;-71
2022/12/30 08:58:56;;;;;;;3.10;1.23;;;10.30;90.00;;;;;;4852085;28;92280;-71
2022/12/30 09:01:24;;;;;;;6.03;1.30;;;10.10;90.20;;;;;;4852052;28;92831;-71
2022/12/30 09:03:51;;;;;;;4.00;1.20;;;9.80;90.70;;;;;;4861640;28;92832;-71
2022/12/30 09:06:20;;;;;;;3.33;1.00;;;9.70;91.10;;;;;;4864599;28;92286;-70
2022/12/30 09:08:46;;;;;;;3.45;1.17;;;9.60;91.50;;;;;;4862705;28;92038;-71
2022/12/30 09:11:15;;;;;;;3.20;1.13;;;9.50;91.90;;;;;;4859608;28;92010;-71
2022/12/30 09:13:41;;;;;;;5.85;1.17;;;9.60;92.30;;;;;;4864039;28;92602;-71
2022/12/30 09:16:10;;;;;;;3.15;1.20;;;9.60;92.20;;;;;;4865712;28;92207;-71
2022/12/30 09:18:36;;;;;;;2.92;0.80;;;9.70;92.30;;;;;;4862150;28;95083;-71
2022/12/30 09:21:03;;;;;;;3.97;1.45;;;9.80;92.10;;;;;;4858875;28;91807;-71
2022/12/30 09:23:29;;;;;;;3.53;1.73;;;9.90;92.00;;;;;;4864598;28;93213;-71
2022/12/30 09:25:55;;;;;;;4.40;1.40;;;10.20;91.60;;;;;;4861333;28;92464;-71
2022/12/30 09:28:20;;;;;;;3.33;1.30;;;10.50;90.80;;;;;;4863198;28;94855;-71
2022/12/30 09:30:46;;;;;;;3.33;1.42;;;10.70;90.30;;;;;;4858604;28;92885;-71
2022/12/30 09:33:12;;;;;;;4.07;1.20;;;10.50;90.00;;;;;;4860468;28;92504;-71
2022/12/30 09:35:37;;;;;;;3.00;1.30;;;10.30;90.20;;;;;;4857922;28;92256;-71
2022/12/30 09:38:03;;;;;;;3.42;1.40;;;10.30;90.60;;;;;;4864326;28;92351;-71
2022/12/30 09:40:44;;;;;;;3.33;1.30;;;10.80;90.40;;;;;;4859563;28;92613;-71
2022/12/30 09:43:24;;;;;;;2.65;1.20;;;11.40;88.40;;;;;;4851667;28;92075;-72
2022/12/30 09:46:19;;;;;;;2.15;1.15;;;11.70;85.80;;;;;;4857921;28;91220;-71
2022/12/30 09:49:18;;;;;;;2.38;1.08;;;11.80;85.40;;;;;;4858915;28;92356;-71
2022/12/30 09:51:51;;;;;;;2.83;0.85;;;11.60;84.50;;;;;;4849137;28;92234;-72
2022/12/30 09:54:21;;;;;;;2.63;1.08;;;12.40;83.30;;;;;;4861661;28;92882;-70
2022/12/30 09:56:48;;;;;;;;;;;13.90;79.00;;;;;;4859789;28;91860;-70
2022/12/30 09:59:38;;;;;;;3.05;1.05;;;14.80;74.60;;;;;;4860651;28;92585;-72
2022/12/30 10:02:20;;;;;;;2.15;1.20;;;14.50;73.30;;;;;;4860787;28;92997;-72
2022/12/30 10:04:46;;;;;;;2.45;0.90;;;14.10;73.80;;;;;;4864100;28;91803;-71
2022/12/30 10:07:26;;;;;;;2.00;0.80;;;13.90;75.00;;;;;;4864459;28;92142;-72
2022/12/30 10:10:20;;;;;;;2.28;0.77;;;13.80;75.60;;;;;;4867590;28;93376;-72
2022/12/30 10:13:06;;;;;;;2.30;1.00;;;14.40;73.20;;;;;;4856299;28;92634;-71
2022/12/30 10:15:32;;;;;;;4.30;1.00;;;14.80;72.10;;;;;;4856132;28;91917;-71
2022/12/30 10:18:13;;;;;;;2.42;1.10;;;15.00;70.00;;;;;;4858629;28;92145;-71
2022/12/30 10:21:00;;;;;;;2.80;1.30;;;14.50;70.90;;;;;;4856042;28;93684;-71
2022/12/30 10:23:36;;;;;;;4.72;1.38;;;13.70;73.40;;;;;;4862971;28;93310;-71
2022/12/30 10:26:08;;;;;;;;;;;13.20;75.80;;;;;;4858256;28;92586;-71
2022/12/30 10:28:41;;;;;;;3.33;1.40;;;12.50;77.50;;;;;;4862908;28;92059;-71
2022/12/30 10:31:16;;;;;;;2.35;0.90;;;11.90;80.00;;;;;;4860751;28;92593;-71
2022/12/30 10:33:42;;;;;;;3.63;1.00;;;11.90;78.60;;;;;;4861028;28;91948;-71
2022/12/30 10:36:33;;;;;;;2.88;1.00;;;12.10;78.90;;;;;;4861488;28;91947;-71
2022/12/30 10:39:24;;;;;;;2.65;1.00;;;12.10;76.80;;;;;;4863225;28;91222;-71
2022/12/30 10:42:14;;;;;;;4.57;1.25;;;12.10;77.40;;;;;;4859383;28;92485;-71
2022/12/30 10:45:04;;;;;;;2.53;0.90;;;11.80;76.90;;;;;;4851702;28;92008;-71
2022/12/30 10:47:33;;;;;;;1.75;1.00;;;11.80;77.20;;;;;;4857514;28;93415;-71
2022/12/30 10:50:20;;;;;;;4.20;1.02;;;11.70;78.40;;;;;;4861207;28;92792;-71
2022/12/30 10:52:46;;;;;;;2.25;1.00;;;11.50;79.70;;;;;;4856159;28;92266;-71
2022/12/30 10:55:24;;;;;;;2.22;0.90;;;11.50;81.00;;;;;;4857507;28;91877;-71
2022/12/30 10:58:12;;;;;;;2.50;1.10;;;11.30;80.80;;;;;;4855457;28;91779;-71
2022/12/30 11:00:40;;;;;;;3.45;0.80;;;11.20;81.80;;;;;;4857614;28;92034;-71
2022/12/30 11:03:29;;;;;;;5.05;1.35;;;11.20;82.10;;;;;;4860814;28;93253;-71
2022/12/30 11:05:56;;;;;;;;;;;11.10;82.10;;;;;;4863492;28;93063;-71
2022/12/30 11:08:26;;;;;;;3.90;1.20;;;11.20;81.70;;;;;;4857140;28;93526;-71
2022/12/30 11:11:04;;;;;;;2.45;1.08;;;11.20;82.70;;;;;;4864473;28;91721;-71
2022/12/30 11:16:27;;;;;;;3.75;1.08;;;11.20;81.10;;;;;;4858809;28;92732;-71
2022/12/30 11:18:56;;;;;;;4.75;1.02;;;11.30;82.70;;;;;;4860338;28;92178;-71
2022/12/30 11:21:30;;;;;;;4.53;1.10;;;11.30;81.50;;;;;;4849081;28;92905;-71
2022/12/30 11:24:01;;;;;;;2.10;0.82;;;11.20;81.40;;;;;;4856468;28;92454;-71
2022/12/30 11:26:29;;;;;;;1.90;0.63;;;11.30;81.00;;;;;;4854848;28;92537;-71
2022/12/30 11:29:14;;;;;;;3.10;0.57;;;11.30;79.40;;;;;;4856203;28;92484;-71
2022/12/30 11:31:47;;;;;;;2.38;0.50;;;11.30;79.20;;;;;;4863853;28;91542;-71
2022/12/30 11:34:34;;;;;;;1.98;0.57;;;11.30;78.10;;;;;;4856371;28;92798;-71
2022/12/30 11:37:19;;;;;;;1.60;0.40;;;11.30;78.30;;;;;;4857089;28;92041;-71
2022/12/30 11:39:45;;;;;;;1.95;0.60;;;11.30;77.00;;;;;;4856197;28;92871;-71
2022/12/30 11:42:29;;;;;;;5.22;0.50;;;11.40;77.30;;;;;;4856889;28;91828;-71
2022/12/30 11:45:24;;;;;;;3.85;0.63;;;11.40;77.10;;;;;;4862107;28;92476;-71
2022/12/30 11:47:50;;;;;;;2.25;0.50;;;11.50;76.90;;;;;;4839417;28;91955;-71
2022/12/30 11:50:18;;;;;;;3.20;0.68;;;11.50;77.40;;;;;;4847035;28;91867;-71
2022/12/30 11:53:01;;;;;;;1.95;0.50;;;11.50;76.80;;;;;;4852435;28;92058;-71
2022/12/30 11:55:34;;;;;;;3.03;0.60;;;11.60;76.10;;;;;;4858123;28;92139;-71
2022/12/30 11:58:01;;;;;;;2.55;0.40;;;11.60;76.90;;;;;;4860952;28;92017;-71
2022/12/30 12:00:38;;;;;;;2.72;0.52;;;11.70;76.40;;;;;;4855701;28;92158;-71
2022/12/30 12:03:14;;;;;;;2.83;0.40;;;11.80;77.20;;;;;;4850102;28;91325;-71
2022/12/30 12:05:42;;;;;;;3.00;0.57;;;11.90;76.10;;;;;;4855258;28;93323;-71
2022/12/30 12:08:29;;;;;;;1.20;0.40;;;12.10;75.10;;;;;;4850558;28;92141;-71
2022/12/30 12:10:59;;;;;;;2.92;0.40;;;12.20;74.80;;;;;;4851406;28;93282;-71
2022/12/30 12:13:33;;;;;;;;;;;12.40;75.40;;;;;;4849440;28;93304;-71
2022/12/30 12:16:00;;;;;;;2.78;1.10;;;12.50;78.80;;;;;;4859169;28;94552;-71
2022/12/30 12:18:33;;;;;;;2.75;0.95;;;12.40;79.90;;;;;;4863360;28;92305;-71
2022/12/30 12:21:16;;;;;;;2.63;1.13;;;12.30;80.50;;;;;;4861215;28;92394;-71
2022/12/30 12:24:33;;;;;;;3.63;1.20;;;12.20;81.00;;;;;;4865306;28;92106;-71
2022/12/30 12:27:05;;;;;;;3.35;1.25;;;12.10;80.90;;;;;;4809728;28;92873;-71
2022/12/30 12:29:34;;;;;;;3.15;1.15;;;11.90;81.50;;;;;;4869578;28;92387;-71
2022/12/30 12:32:27;;;;;;;3.08;0.93;;;11.90;82.40;;;;;;4855217;28;94075;-71
2022/12/30 12:35:20;;;;;;;4.07;1.45;;;11.70;82.40;;;;;;4859782;28;92052;-71
2022/12/30 12:37:52;;;;;;;2.92;1.52;;;11.70;82.60;;;;;;4841555;28;93490;-71
2022/12/30 12:40:45;;;;;;;3.20;1.60;;;11.60;82.60;;;;;;4857730;28;92004;-71
2022/12/30 12:43:16;;;;;;;3.45;1.15;;;11.50;82.30;;;;;;4859330;28;92118;-71
2022/12/30 12:45:44;;;;;;;3.03;1.00;;;11.30;82.50;;;;;;4855386;28;92095;-71
2022/12/30 12:48:32;;;;;;;2.33;0.90;;;11.30;82.50;;;;;;4851975;28;92786;-71
2022/12/30 12:51:06;;;;;;;1.92;0.70;;;11.40;82.50;;;;;;4850805;28;91282;-71
2022/12/30 12:53:54;;;;;;;2.45;0.60;;;11.30;82.80;;;;;;4855285;28;91873;-71
2022/12/30 12:56:44;;;;;;;3.17;0.98;;;11.30;83.50;;;;;;4855725;28;92328;-71
2022/12/30 12:59:38;;;;;;;2.13;0.75;;;11.20;83.30;;;;;;4858158;28;94374;-71
2022/12/30 13:02:23;;;;;;;1.50;0.60;;;11.10;83.80;;;;;;4856964;28;93335;-71
2022/12/30 13:05:09;;;;;;;1.70;0.50;;;11.10;84.20;;;;;;4859235;28;92245;-71
2022/12/30 13:08:00;;;;;;;2.33;0.40;;;10.90;84.70;;;;;;4854579;28;91988;-71
2022/12/30 13:10:48;;;;;;;1.88;0.45;;;11.00;85.60;;;;;;4858348;28;92456;-71
2022/12/30 13:13:24;;;;;;;2.15;0.80;;;11.00;85.50;;;;;;4853644;28;93357;-71
2022/12/30 13:15:56;;;;;;;2.57;1.40;;;11.00;85.10;;;;;;4859946;28;91964;-71
2022/12/30 13:18:25;;;;;;;1.88;0.68;;;11.00;85.30;;;;;;4859928;28;91498;-71
2022/12/30 13:21:07;;;;;;;2.10;0.80;;;11.00;85.40;;;;;;4860093;28;92488;-71
2022/12/30 13:23:41;;;;;;;2.38;1.10;;;11.00;86.20;;;;;;4855397;28;92675;-71
2022/12/30 13:26:07;;;;;;;2.78;0.80;;;11.00;86.40;;;;;;4855085;28;93027;-71
2022/12/30 13:28:37;;;;;;;2.92;1.00;;;10.90;87.10;;;;;;4857036;28;92784;-71
2022/12/30 13:31:25;;;;;;;1.90;0.32;;;10.90;87.40;;;;;;4857305;28;92831;-71
2022/12/30 13:34:03;;;;;;;2.60;0.52;;;10.90;87.80;;;;;;4858612;28;91929;-71
2022/12/30 13:36:49;;;;;;;1.60;0.50;;;10.80;88.30;;;;;;4858306;28;92583;-71
2022/12/30 13:39:18;;;;;;;2.15;0.65;;;10.80;88.90;;;;;;4860267;28;91843;-71
2022/12/30 13:42:14;;;;;;;2.33;0.50;;;10.80;88.30;;;;;;4855481;28;92765;-71
2022/12/30 13:44:43;;;;;;;4.90;0.70;;;10.70;89.20;;;;;;4849973;28;92559;-71
2022/12/30 13:47:25;;;;;;;1.75;0.60;;;10.70;89.00;;;;;;4854570;28;92428;-71
2022/12/30 13:49:51;;;;;;;1.75;0.60;;;10.60;88.90;;;;;;4856585;28;92197;-71
2022/12/30 13:52:25;;;;;;;4.57;0.70;;;10.60;88.50;;;;;;4852894;28;93210;-71
2022/12/30 13:54:55;;;;;;;2.28;0.60;;;10.60;88.80;;;;;;4853450;28;93182;-71
2022/12/30 13:57:36;;;;;;;2.70;1.30;;;10.50;88.60;;;;;;4851870;28;92056;-71
2022/12/30 14:00:27;;;;;;;4.63;0.60;;;10.50;88.70;;;;;;4862622;28;91867;-72
2022/12/30 14:02:59;;;;;;;1.63;0.60;;;10.40;88.90;;;;;;4859998;28;92131;-70
2022/12/30 14:05:36;;;;;;;1.80;1.00;;;10.40;88.90;;;;;;4859487;28;92728;-70
2022/12/30 14:08:20;;;;;;;1.42;0.55;;;10.30;89.80;;;;;;4851773;28;92130;-70
2022/12/30 14:10:46;;;;;;;3.53;0.82;;;10.30;89.90;;;;;;4858141;28;91266;-71
2022/12/30 14:13:12;;;;;;;1.60;0.50;;;10.20;90.10;;;;;;4847500;28;93033;-71
2022/12/30 14:15:41;;;;;;;2.88;0.85;;;10.20;90.10;;;;;;4851754;28;92276;-71
2022/12/30 14:18:21;;;;;;;4.07;0.98;;;10.20;90.40;;;;;;4853738;28;93392;-71
2022/12/30 14:20:59;;;;;;;3.15;0.95;;;10.20;90.50;;;;;;4856700;28;92011;-72
2022/12/30 14:23:48;;;;;;;2.55;1.00;;;10.10;90.80;;;;;;4852501;28;91942;-71
2022/12/30 14:26:20;;;;;;;8.20;1.75;;;10.10;91.00;;;;;;4854463;28;92643;-72
2022/12/30 14:29:20;;;;;;;3.55;1.67;;;10.00;91.30;;;;;;4855298;28;92363;-71
2022/12/30 14:31:49;;;;;;;2.60;1.10;;;10.00;91.20;;;;;;4855331;28;92794;-71
2022/12/30 14:34:30;;;;;;;3.67;1.50;;;9.90;91.10;;;;;;4858294;28;93134;-71
2022/12/30 14:37:02;;;;;;;3.97;1.63;;;9.80;91.00;;;;;;4858657;28;93717;-71
2022/12/30 14:39:29;;;;;;;6.15;1.80;;;9.80;91.00;;;;;;4853808;28;92213;-71
2022/12/30 14:41:56;;;;;;;4.75;2.13;;;9.80;91.10;;;;;;4862379;28;92831;-70
2022/12/30 14:44:26;;;;;;;6.22;2.08;;;9.80;91.00;;;;;;4854811;28;96040;-71
2022/12/30 14:47:09;;;;;;;6.47;1.67;;;9.90;91.00;;;;;;4854233;28;94123;-71
2022/12/30 14:49:42;;;;;;;4.72;2.30;;;9.90;90.90;;;;;;4863674;28;91911;-71
2022/12/30 14:52:10;;;;;;;3.25;1.60;;;9.80;90.70;;;;;;4861790;28;91976;-71
2022/12/30 14:54:42;;;;;;;4.35;1.50;;;9.80;90.70;;;;;;4863762;28;92324;-71
2022/12/30 14:57:17;;;;;;;4.10;2.05;;;9.90;90.50;;;;;;4859551;28;93440;-71
2022/12/30 14:59:51;;;;;;;3.30;1.52;;;9.90;90.50;;;;;;4866194;28;92351;-71
2022/12/30 15:02:24;;;;;;;7.57;1.40;;;9.80;90.80;;;;;;4855586;28;91151;-71
2022/12/30 15:04:53;;;;;;;5.35;2.28;;;9.80;91.20;;;;;;4860029;28;91985;-71
2022/12/30 15:07:24;;;;;;;4.45;1.92;;;9.80;91.40;;;;;;4860292;28;93031;-71
2022/12/30 15:09:52;;;;;;;5.13;2.10;;;9.70;91.60;;;;;;4855485;28;94489;-71
2022/12/30 15:12:19;;;;;;;5.00;1.58;;;9.70;91.40;;;;;;4857336;28;92070;-71
2022/12/30 15:14:48;;;;;;;3.75;1.52;;;9.70;91.50;;;;;;4849493;28;92957;-71
2022/12/30 15:17:14;;;;;;;5.88;1.70;;;9.70;91.70;;;;;;4850879;28;92224;-71
2022/12/30 15:19:40;;;;;;;5.32;2.25;;;9.60;91.90;;;;;;4854053;28;91978;-71
2022/12/30 15:22:14;;;;;;;4.60;2.25;;;9.50;92.30;;;;;;4866211;28;91877;-71
2022/12/30 15:24:42;;;;;;;4.82;2.50;;;9.40;92.70;;;;;;4857141;28;93000;-71
2022/12/30 15:27:30;;;;;;;7.25;3.22;;;9.40;92.70;;;;;;4861554;28;91260;-71
2022/12/30 15:30:09;;;;;;;10.70;5.70;;;9.50;92.70;;;;;;4855473;28;92660;-71
2022/12/30 15:32:37;;;;;;;6.68;2.92;;;9.50;92.80;;;;;;4855364;28;92626;-71
2022/12/30 15:35:10;;;;;;;11.18;5.05;;;9.50;92.80;;;;;;4858280;28;95483;-71
2022/12/30 15:37:36;;;;;;;6.72;3.55;;;9.50;93.00;;;;;;4855832;28;92919;-71
2022/12/30 15:40:06;;;;;;;6.18;3.58;;;9.50;93.00;;;;;;4864341;28;92624;-71
2022/12/30 15:42:37;;;;;;;;;;;9.60;92.90;;;;;;4865455;28;92997;-71
2022/12/30 15:45:05;;;;;;;5.43;2.50;;;9.60;94.00;;;;;;4858914;28;92896;-71
2022/12/30 15:47:30;;;;;;;7.00;2.47;;;9.60;93.20;;;;;;4858328;28;92596;-71
2022/12/30 15:49:59;;;;;;;4.82;2.20;;;9.50;93.30;;;;;;4857084;28;91980;-71
2022/12/30 15:52:36;;;;;;;6.97;2.65;;;9.50;93.40;;;;;;4863885;28;91211;-71
2022/12/30 15:55:02;;;;;;;6.75;3.08;;;9.50;93.50;;;;;;4857737;28;91992;-71
2022/12/30 15:57:32;;;;;;;6.13;3.08;;;9.50;94.10;;;;;;4864910;28;91957;-71
2022/12/30 16:00:05;;;;;;;11.02;4.70;;;9.30;94.70;;;;;;4864736;28;93228;-71
2022/12/30 16:02:35;;;;;;;9.50;4.15;;;9.30;95.00;;;;;;4869020;28;92403;-71
2022/12/30 16:05:05;;;;;;;8.43;3.88;;;9.20;95.10;;;;;;4862766;28;93593;-71
2022/12/30 16:07:34;;;;;;;8.50;4.15;;;9.10;95.40;;;;;;4864724;28;92596;-71
2022/12/30 16:10:03;;;;;;;6.03;2.97;;;9.10;95.60;;;;;;4855338;28;92105;-71
2022/12/30 16:12:42;;;;;;;7.32;2.95;;;9.10;95.50;;;;;;4864978;28;91774;-71
2022/12/30 16:15:10;;;;;;;5.18;2.40;;;9.00;96.10;;;;;;4858759;28;92389;-71
2022/12/30 16:17:45;;;;;;;5.47;2.25;;;9.00;96.00;;;;;;4864931;28;91949;-71
2022/12/30 16:20:26;;;;;;;4.97;2.40;;;9.10;96.20;;;;;;4863191;28;91842;-71
2022/12/30 16:22:58;;;;;;;7.03;2.63;;;9.10;96.20;;;;;;4862664;28;92048;-71
2022/12/30 16:25:32;;;;;;;6.60;3.10;;;9.10;96.30;;;;;;4858849;28;94423;-70
2022/12/30 16:27:59;;;;;;;6.97;3.03;;;9.00;96.70;;;;;;4863210;28;92898;-71
2022/12/30 16:30:38;;;;;;;7.50;3.00;;;8.90;97.00;;;;;;4859138;28;92572;-71
2022/12/30 16:33:29;;;;;;;8.55;2.53;;;8.80;97.50;;;;;;4867012;28;92513;-71
2022/12/30 16:36:04;;;;;;;6.82;2.60;;;8.80;98.10;;;;;;4852879;28;92323;-71
2022/12/30 16:38:42;;;;;;;7.07;3.58;;;8.70;98.60;;;;;;4861112;28;92355;-71
2022/12/30 16:41:13;;;;;;;6.80;3.17;;;8.70;99.10;;;;;;4878640;28;91802;-70
2022/12/30 16:43:39;;;;;;;6.63;3.05;;;8.60;99.00;;;;;;4881289;28;91054;-70
2022/12/30 16:46:14;;;;;;;7.45;3.10;;;8.70;99.40;;;;;;4860490;28;92003;-71
2022/12/30 16:48:42;;;;;;;8.27;3.67;;;8.60;99.80;;;;;;4849941;28;94564;-70
2022/12/30 16:51:22;;;;;;;8.85;3.60;;;8.60;99.90;;;;;;4864200;28;93738;-70
2022/12/30 16:53:48;;;;;;;7.32;3.33;;;8.60;99.90;;;;;;4862260;28;93029;-70
2022/12/30 16:56:14;;;;;;;7.97;3.97;;;8.60;99.90;;;;;;4856090;28;92449;-70
2022/12/30 16:58:39;;;;;;;7.43;3.53;;;8.50;99.90;;;;;;4859680;28;92828;-70
2022/12/30 17:01:05;;;;;;;7.63;3.40;;;8.60;99.90;;;;;;4858495;28;91812;-70
2022/12/30 17:03:31;;;;;;;7.43;2.92;;;8.60;99.90;;;;;;4859592;28;91962;-70
2022/12/30 17:05:57;;;;;;;10.27;3.95;;;8.60;99.90;;;;;;4861986;28;92871;-70